Terminal Aerodrome Forecast
Issued by NWS

Home | Current Version | Previous Version | Graphics & Text | Print | Product List | Glossary On
Versions: 1 2 3 4 5 6 7 8 9 10 11 12 13 14 15 16 17
000
FTUS43 KGRB 150200 AAA
TAFATW
TAF AMD
KATW 150237Z 1503/1524 34010KT P6SM BKN035
     FM150400 34010KT P6SM SCT040
     FM151400 32009KT P6SM BKN030
     FM152100 29008KT P6SM SCT045=

USA.gov is the U.S. government's official web portal to all federal, state and local government web resources and services.